Time;durP1;ratioP1;P1;durP2;ratioP2;P2;SDS_P1;SDS_P2;PMS_P1;PMS_P2;Temp;Humidity;BMP_temperature;BMP_pressure;BME280_temperature;BME280_humidity;BME280_pressure;Samples;Min_cycle;Max_cycle;Signal;HPM_P1;HPM_P2
2024/03/19 00:00:58;;;;;;;3.10;2.80;;;2.40;99.90;;;;;;4875607;29;20302;-81
2024/03/19 00:03:25;;;;;;;2.97;2.70;;;2.30;99.90;;;;;;4866846;29;20205;-80
2024/03/19 00:05:51;;;;;;;0.93;0.93;;;2.30;99.90;;;;;;4862639;29;20211;-81
2024/03/19 00:08:17;;;;;;;2.65;2.45;;;2.30;99.90;;;;;;4861154;29;20261;-81
2024/03/19 00:10:43;;;;;;;0.90;0.88;;;2.30;99.90;;;;;;4849446;29;20222;-83
2024/03/19 00:13:10;;;;;;;1.67;1.60;;;2.30;99.90;;;;;;4849975;29;20210;-82
2024/03/19 00:15:36;;;;;;;0.70;0.70;;;2.30;99.90;;;;;;4865832;29;20270;-82
2024/03/19 00:18:03;;;;;;;1.13;1.13;;;2.30;99.90;;;;;;4868411;29;20270;-85
2024/03/19 00:20:35;;;;;;;0.70;0.70;;;2.30;99.90;;;;;;4851120;29;20214;-84
2024/03/19 00:23:01;;;;;;;3.43;2.30;;;2.30;99.90;;;;;;4865935;29;20263;-84
2024/03/19 00:25:27;;;;;;;0.90;0.90;;;2.20;99.90;;;;;;4867798;29;20456;-85
2024/03/19 00:27:53;;;;;;;1.35;1.25;;;2.20;99.90;;;;;;4861782;29;20202;-80
2024/03/19 00:30:21;;;;;;;1.13;1.00;;;2.20;99.90;;;;;;4851628;29;20253;-86
2024/03/19 00:32:47;;;;;;;1.40;1.40;;;2.20;99.90;;;;;;4877956;29;20394;-84
2024/03/19 00:35:15;;;;;;;3.03;2.85;;;2.20;99.90;;;;;;4870185;29;20565;-83
2024/03/19 00:37:42;;;;;;;2.95;2.70;;;2.20;99.90;;;;;;4868565;29;20518;-84
2024/03/19 00:40:10;;;;;;;1.80;1.70;;;2.20;99.90;;;;;;4852931;29;20249;-82
2024/03/19 00:42:43;;;;;;;0.93;0.93;;;2.20;99.90;;;;;;4867692;29;20214;-80
2024/03/19 00:45:10;;;;;;;2.08;1.98;;;2.10;99.90;;;;;;4862326;29;20213;-81
2024/03/19 00:47:38;;;;;;;1.88;1.77;;;2.10;99.90;;;;;;4853474;29;20210;-80
2024/03/19 00:50:05;;;;;;;0.85;0.85;;;2.10;99.90;;;;;;4853035;29;20242;-81
2024/03/19 00:52:32;;;;;;;1.23;1.15;;;2.10;99.90;;;;;;4852534;29;20212;-82
2024/03/19 00:54:58;;;;;;;1.15;1.15;;;2.10;99.90;;;;;;4867706;29;20383;-83
2024/03/19 00:57:24;;;;;;;1.30;1.30;;;2.10;99.90;;;;;;4868402;29;20211;-82
2024/03/19 00:59:53;;;;;;;2.45;1.50;;;2.10;99.90;;;;;;4869279;29;20206;-82
2024/03/19 01:02:18;;;;;;;1.10;1.10;;;2.10;99.90;;;;;;4869705;29;20221;-82
2024/03/19 01:04:45;;;;;;;0.55;0.55;;;2.10;99.90;;;;;;4861913;29;20570;-81
2024/03/19 01:07:11;;;;;;;1.77;1.67;;;2.10;99.90;;;;;;4869813;29;20206;-82
2024/03/19 01:09:39;;;;;;;0.60;0.60;;;2.10;99.90;;;;;;4853810;29;20237;-84
2024/03/19 01:12:08;;;;;;;2.28;2.10;;;2.10;99.90;;;;;;4860246;29;20763;-86
2024/03/19 01:14:36;;;;;;;1.05;1.05;;;1.90;99.90;;;;;;4867942;29;20224;-82
2024/03/19 01:17:03;;;;;;;3.08;2.92;;;2.00;99.90;;;;;;4872856;29;20475;-84
2024/03/19 01:19:30;;;;;;;1.67;1.58;;;2.10;99.90;;;;;;4879070;29;20540;-84
2024/03/19 01:21:56;;;;;;;1.77;1.67;;;2.00;99.90;;;;;;4870253;29;20253;-81
2024/03/19 01:24:24;;;;;;;2.03;1.92;;;2.10;99.90;;;;;;4853463;29;20206;-84
2024/03/19 01:26:51;;;;;;;1.73;1.63;;;2.00;99.90;;;;;;4868616;29;20209;-84
2024/03/19 01:29:18;;;;;;;1.25;1.25;;;2.00;99.90;;;;;;4868498;29;20502;-83
2024/03/19 01:31:44;;;;;;;0.60;0.60;;;2.00;99.90;;;;;;4837468;29;20214;-81
2024/03/19 01:34:09;;;;;;;2.20;2.10;;;1.90;99.90;;;;;;4868885;29;20269;-82
2024/03/19 01:36:36;;;;;;;2.13;2.03;;;1.90;99.90;;;;;;4869995;29;20212;-85
2024/03/19 01:39:04;;;;;;;1.45;1.40;;;1.90;99.90;;;;;;4855610;29;20210;-86
2024/03/19 01:41:32;;;;;;;1.48;1.38;;;1.90;99.90;;;;;;4872390;29;20218;-84
2024/03/19 01:43:58;;;;;;;2.05;1.25;;;1.90;99.90;;;;;;4863857;29;20427;-85
2024/03/19 01:46:29;;;;;;;0.90;0.90;;;1.90;99.90;;;;;;4852531;29;20208;-81
2024/03/19 01:48:58;;;;;;;1.45;1.08;;;1.80;99.90;;;;;;4867321;29;20206;-85
2024/03/19 01:51:25;;;;;;;2.22;1.65;;;1.70;99.90;;;;;;4868105;29;20237;-85
2024/03/19 01:53:53;;;;;;;0.98;0.98;;;1.90;99.90;;;;;;4866823;29;20209;-81
2024/03/19 01:56:19;;;;;;;1.08;1.08;;;1.70;99.90;;;;;;4868318;29;20226;-84
2024/03/19 01:58:47;;;;;;;1.00;1.00;;;1.80;99.90;;;;;;4877276;29;20210;-83
2024/03/19 02:01:15;;;;;;;0.73;0.73;;;1.80;99.90;;;;;;4880996;29;20226;-84
2024/03/19 02:03:46;;;;;;;1.02;1.02;;;1.80;99.90;;;;;;4892774;29;20210;-84
2024/03/19 02:06:20;;;;;;;2.83;2.63;;;1.80;99.90;;;;;;4884550;29;20193;-83
2024/03/19 02:09:15;;;;;;;0.80;0.80;;;1.80;99.90;;;;;;4886011;29;20202;-81
2024/03/19 02:11:41;;;;;;;8.10;2.08;;;1.80;99.90;;;;;;4870045;29;20209;-79
2024/03/19 02:14:08;;;;;;;2.83;2.65;;;1.80;99.90;;;;;;4871045;29;20242;-81
2024/03/19 02:16:35;;;;;;;2.28;1.20;;;1.80;99.90;;;;;;4878662;29;20205;-84
2024/03/19 02:19:05;;;;;;;1.90;1.80;;;1.80;99.90;;;;;;4880339;29;20190;-80
2024/03/19 02:21:33;;;;;;;3.50;3.20;;;2.00;99.90;;;;;;4873440;29;20246;-83
2024/03/19 02:24:00;;;;;;;3.10;1.45;;;1.90;99.90;;;;;;4849265;29;20202;-82
2024/03/19 02:26:27;;;;;;;2.25;2.03;;;1.80;99.90;;;;;;4866981;29;20217;-82
2024/03/19 02:28:54;;;;;;;2.08;1.98;;;1.90;99.90;;;;;;4867676;29;20214;-83
2024/03/19 02:31:24;;;;;;;0.90;0.90;;;1.90;99.90;;;;;;4866299;29;20437;-81
2024/03/19 02:33:52;;;;;;;5.43;3.53;;;1.90;99.90;;;;;;4851934;29;20225;-82
2024/03/19 02:36:18;;;;;;;2.47;2.38;;;1.90;99.90;;;;;;4867588;29;20205;-81
2024/03/19 02:38:46;;;;;;;1.50;1.40;;;1.90;99.90;;;;;;4870592;29;20186;-84
2024/03/19 02:41:12;;;;;;;3.17;2.97;;;1.90;99.90;;;;;;4878455;29;20205;-81
2024/03/19 02:43:40;;;;;;;2.20;2.10;;;1.90;99.90;;;;;;4873135;29;20216;-83
2024/03/19 02:46:08;;;;;;;1.13;1.13;;;1.90;99.90;;;;;;4864080;29;20229;-80
2024/03/19 02:48:34;;;;;;;5.88;1.95;;;1.90;99.90;;;;;;4869579;29;20274;-80
2024/03/19 02:51:01;;;;;;;2.28;1.77;;;1.90;99.90;;;;;;4875874;29;20228;-81
2024/03/19 02:53:28;;;;;;;1.95;1.85;;;2.00;99.90;;;;;;4869407;29;20210;-82
2024/03/19 02:55:55;;;;;;;1.27;1.25;;;1.90;99.90;;;;;;4872210;29;20205;-80
2024/03/19 02:58:23;;;;;;;1.00;1.00;;;1.90;99.90;;;;;;4876813;29;20276;-82
2024/03/19 03:00:52;;;;;;;1.85;1.77;;;2.00;99.90;;;;;;4890622;29;20444;-84
2024/03/19 03:03:23;;;;;;;1.85;1.48;;;1.90;99.90;;;;;;4875321;29;20250;-83
2024/03/19 03:05:49;;;;;;;1.20;1.20;;;1.80;99.90;;;;;;4865422;29;20220;-83
2024/03/19 03:08:17;;;;;;;0.95;0.95;;;1.90;99.90;;;;;;4865743;29;20257;-82
2024/03/19 03:10:43;;;;;;;1.35;1.35;;;2.00;99.90;;;;;;4865956;29;20459;-81
2024/03/19 03:13:10;;;;;;;3.00;2.80;;;1.90;99.90;;;;;;4865742;29;20205;-82
2024/03/19 03:15:37;;;;;;;2.33;2.22;;;1.90;99.90;;;;;;4866473;29;20445;-82
2024/03/19 03:18:05;;;;;;;5.22;2.33;;;1.90;99.90;;;;;;4865110;29;20209;-83
2024/03/19 03:20:31;;;;;;;1.77;1.67;;;1.90;99.90;;;;;;4866037;29;20398;-82
2024/03/19 03:22:57;;;;;;;1.65;1.55;;;1.90;99.90;;;;;;4867221;29;20234;-82
2024/03/19 03:25:26;;;;;;;2.80;2.67;;;1.80;99.90;;;;;;4868411;29;20221;-83
2024/03/19 03:27:54;;;;;;;0.98;0.98;;;2.00;99.90;;;;;;4867666;29;20198;-83
2024/03/19 03:30:21;;;;;;;0.60;0.60;;;1.90;99.90;;;;;;4872485;29;20234;-84
2024/03/19 03:32:48;;;;;;;2.35;1.52;;;1.90;99.90;;;;;;4867327;29;20220;-82
2024/03/19 03:35:14;;;;;;;1.20;1.20;;;1.80;99.90;;;;;;4851455;29;20210;-84
2024/03/19 03:37:41;;;;;;;2.38;2.20;;;1.90;99.90;;;;;;4848110;29;20217;-82
2024/03/19 03:40:22;;;;;;;3.97;2.70;;;1.90;99.90;;;;;;4866765;29;20224;-82
2024/03/19 03:42:50;;;;;;;2.63;2.10;;;1.80;99.90;;;;;;4866290;29;20217;-84
2024/03/19 03:45:20;;;;;;;2.22;2.10;;;1.80;99.90;;;;;;4866735;29;20213;-90
2024/03/19 03:50:36;;;;;;;1.27;1.27;;;1.80;99.90;;;;;;5074004;23;20310;-91
2024/03/19 03:53:02;;;;;;;1.58;1.58;;;1.90;99.90;;;;;;4996120;23;20253;-89
2024/03/19 03:55:29;;;;;;;2.60;2.40;;;1.80;99.90;;;;;;4873943;29;20411;-89
2024/03/19 03:57:55;;;;;;;1.73;1.63;;;1.80;99.90;;;;;;5098336;23;20232;-90
2024/03/19 04:00:39;;;;;;;1.90;1.80;;;1.60;99.90;;;;;;5088725;23;20491;-90
2024/03/19 04:03:06;;;;;;;1.13;1.13;;;1.70;99.90;;;;;;4870590;29;20225;-90
2024/03/19 04:05:32;;;;;;;1.33;1.17;;;1.70;99.90;;;;;;4873461;29;20206;-87
2024/03/19 04:07:58;;;;;;;4.15;2.45;;;1.80;99.90;;;;;;4874109;29;20209;-89
2024/03/19 04:10:28;;;;;;;0.65;0.65;;;1.90;99.90;;;;;;5004010;23;20248;-88
2024/03/19 04:23:34;;;;;;;1.05;1.05;;;1.80;99.90;;;;;;5500189;23;20477;-86
2024/03/19 04:36:40;;;;;;;4.40;4.20;;;1.80;99.90;;;;;;5626456;23;21252;-89
2024/03/19 04:44:40;;;;;;;2.95;2.83;;;1.70;99.90;;;;;;5005829;23;20237;-88
2024/03/19 04:47:08;;;;;;;3.38;3.28;;;1.70;99.90;;;;;;4890314;29;20187;-89
2024/03/19 04:49:34;;;;;;;2.10;2.00;;;1.70;99.90;;;;;;4860991;29;20208;-88
2024/03/19 04:52:01;;;;;;;2.80;2.60;;;1.70;99.90;;;;;;4902981;29;20209;-87
2024/03/19 04:54:27;;;;;;;1.88;1.77;;;1.60;99.90;;;;;;4908222;29;20209;-88
2024/03/19 04:56:53;;;;;;;3.17;2.97;;;1.70;99.90;;;;;;4898115;29;20212;-89
2024/03/19 04:59:20;;;;;;;1.42;1.42;;;1.70;99.90;;;;;;4895535;29;20205;-90
2024/03/19 05:07:12;;;;;;;2.80;2.60;;;1.40;99.90;;;;;;5256534;23;20237;-87
2024/03/19 05:09:42;;;;;;;1.75;1.65;;;1.40;99.90;;;;;;4853967;29;20233;-82
2024/03/19 05:12:09;;;;;;;0.90;0.90;;;1.40;99.90;;;;;;4877290;29;20205;-83
2024/03/19 05:14:36;;;;;;;3.85;1.88;;;1.40;99.90;;;;;;4891544;29;20264;-82
2024/03/19 05:17:05;;;;;;;4.20;3.67;;;1.30;99.90;;;;;;4905570;29;20201;-81
2024/03/19 05:19:34;;;;;;;1.40;1.40;;;1.30;99.90;;;;;;4885653;29;20236;-81
2024/03/19 05:22:00;;;;;;;1.77;1.48;;;1.40;99.90;;;;;;4870143;29;20206;-81
2024/03/19 05:24:26;;;;;;;1.75;1.70;;;1.50;99.90;;;;;;4871837;29;20349;-81
2024/03/19 05:26:53;;;;;;;1.95;1.85;;;1.50;99.90;;;;;;4863772;29;20208;-80
2024/03/19 05:29:20;;;;;;;2.35;2.25;;;1.50;99.90;;;;;;4857489;29;20215;-81
2024/03/19 05:31:47;;;;;;;4.07;3.63;;;1.50;99.90;;;;;;4870479;29;20510;-83
2024/03/19 05:34:13;;;;;;;1.65;1.55;;;1.60;99.90;;;;;;4889605;29;20226;-81
2024/03/19 05:36:39;;;;;;;2.58;2.40;;;1.60;99.90;;;;;;4874111;29;20529;-83
2024/03/19 05:39:08;;;;;;;1.90;1.80;;;1.60;99.90;;;;;;4887201;29;20243;-82
2024/03/19 05:41:37;;;;;;;1.98;1.90;;;1.70;99.90;;;;;;4883004;29;20216;-83
2024/03/19 05:44:09;;;;;;;1.02;1.02;;;1.70;99.90;;;;;;4863720;29;20600;-83
2024/03/19 05:46:36;;;;;;;1.42;1.33;;;1.80;99.90;;;;;;4887602;29;20423;-85
2024/03/19 05:49:04;;;;;;;3.78;2.85;;;1.80;99.90;;;;;;4886605;29;20244;-84
2024/03/19 05:51:32;;;;;;;1.90;1.80;;;1.90;99.90;;;;;;4889170;29;20240;-83
2024/03/19 05:53:59;;;;;;;2.03;1.92;;;2.00;99.90;;;;;;4878677;29;20428;-83
2024/03/19 05:56:27;;;;;;;2.20;2.08;;;2.10;99.90;;;;;;4896947;29;20234;-84
2024/03/19 05:58:54;;;;;;;2.47;1.80;;;2.20;99.90;;;;;;4883587;29;20206;-83
2024/03/19 06:01:22;;;;;;;0.73;0.73;;;2.20;99.90;;;;;;4879511;29;20494;-83
2024/03/19 06:03:48;;;;;;;2.60;2.40;;;2.20;99.90;;;;;;4882720;29;20217;-84
2024/03/19 06:06:15;;;;;;;1.02;1.02;;;2.20;99.90;;;;;;4881328;29;20419;-82
2024/03/19 06:08:41;;;;;;;2.70;2.60;;;2.20;99.90;;;;;;4858127;29;20393;-82
2024/03/19 06:11:09;;;;;;;1.73;1.63;;;2.30;99.90;;;;;;4885874;29;20225;-83
2024/03/19 06:13:36;;;;;;;1.17;1.17;;;2.40;99.90;;;;;;4865812;29;20218;-82
2024/03/19 06:16:05;;;;;;;2.33;2.22;;;2.50;99.90;;;;;;4878115;29;20553;-81
2024/03/19 06:18:33;;;;;;;0.80;0.80;;;2.50;99.90;;;;;;4876112;29;20216;-83
2024/03/19 06:21:00;;;;;;;3.80;2.45;;;2.80;99.90;;;;;;4887161;29;20208;-83
2024/03/19 06:23:26;;;;;;;1.30;1.23;;;2.90;99.90;;;;;;4882466;29;20223;-84
2024/03/19 06:25:54;;;;;;;0.90;0.90;;;2.80;99.90;;;;;;4879508;29;20219;-82
2024/03/19 06:28:21;;;;;;;3.10;2.92;;;2.90;99.90;;;;;;4879748;29;20201;-85
2024/03/19 06:30:50;;;;;;;1.23;1.23;;;2.80;99.90;;;;;;4872928;29;20229;-81
2024/03/19 06:33:17;;;;;;;2.17;2.08;;;2.80;99.90;;;;;;4880131;29;20206;-80
2024/03/19 06:35:46;;;;;;;2.50;2.30;;;3.10;99.90;;;;;;4881892;29;20210;-81
2024/03/19 06:38:12;;;;;;;3.30;3.10;;;3.30;99.90;;;;;;4875549;29;20202;-82
2024/03/19 06:40:39;;;;;;;3.22;2.33;;;3.50;99.90;;;;;;4876059;29;20218;-82
2024/03/19 06:43:07;;;;;;;1.80;1.70;;;3.80;99.90;;;;;;4862361;29;20216;-83
2024/03/19 06:45:34;;;;;;;1.70;1.50;;;3.90;99.90;;;;;;4881045;29;20205;-83
2024/03/19 06:48:01;;;;;;;4.43;4.13;;;3.90;99.90;;;;;;4877582;29;20210;-82
2024/03/19 06:50:27;;;;;;;1.15;1.15;;;4.00;99.90;;;;;;4862569;29;20250;-83
2024/03/19 06:52:53;;;;;;;2.03;1.93;;;3.90;99.90;;;;;;4873371;29;20214;-84
2024/03/19 06:55:20;;;;;;;5.20;3.53;;;4.10;99.90;;;;;;4888010;29;20358;-83
2024/03/19 06:57:49;;;;;;;3.28;2.60;;;4.20;99.90;;;;;;4873485;29;20214;-84
2024/03/19 07:00:18;;;;;;;0.50;0.50;;;4.30;99.90;;;;;;4878902;29;20238;-85
2024/03/19 07:02:46;;;;;;;4.65;3.65;;;4.30;99.90;;;;;;4862385;29;20206;-84
2024/03/19 07:05:16;;;;;;;2.92;2.72;;;4.40;99.90;;;;;;4878920;29;20278;-85
2024/03/19 07:07:42;;;;;;;2.67;2.58;;;4.90;99.90;;;;;;4875343;29;20218;-84
2024/03/19 07:10:11;;;;;;;2.30;2.20;;;4.90;99.90;;;;;;4875920;29;20225;-86
2024/03/19 07:12:39;;;;;;;1.80;1.77;;;5.10;99.90;;;;;;4880240;29;20864;-80
2024/03/19 07:15:10;;;;;;;1.50;1.50;;;6.00;99.90;;;;;;4876499;29;20212;-82
2024/03/19 07:17:40;;;;;;;3.33;3.08;;;7.70;99.90;;;;;;4886670;29;20555;-82
2024/03/19 07:20:09;;;;;;;0.60;0.60;;;8.00;99.90;;;;;;4895534;29;20213;-88
2024/03/19 07:22:36;;;;;;;1.13;1.13;;;10.00;99.90;;;;;;4893732;29;20201;-86
2024/03/19 07:25:05;;;;;;;0.70;0.70;;;8.40;99.90;;;;;;4888165;29;20388;-87
2024/03/19 07:27:31;;;;;;;3.17;1.10;;;10.00;99.90;;;;;;4889995;29;20211;-87
2024/03/19 07:29:58;;;;;;;0.60;0.60;;;8.60;99.90;;;;;;4892467;29;20229;-87
2024/03/19 07:32:23;;;;;;;1.47;1.40;;;8.30;99.90;;;;;;4901544;29;20204;-89
2024/03/19 07:34:50;;;;;;;2.83;2.72;;;9.50;99.90;;;;;;4906011;29;20440;-87
2024/03/19 07:37:17;;;;;;;2.42;2.35;;;11.50;93.00;;;;;;4903828;29;20190;-86
2024/03/19 07:39:44;;;;;;;1.05;1.05;;;12.50;82.20;;;;;;4906553;29;20530;-87
2024/03/19 07:42:10;;;;;;;1.13;1.13;;;14.40;79.20;;;;;;4883127;29;20579;-85
2024/03/19 07:44:38;;;;;;;1.00;1.00;;;10.70;84.20;;;;;;4894050;29;20208;-89
2024/03/19 07:47:07;;;;;;;1.67;1.67;;;10.00;86.40;;;;;;4883764;29;20425;-87
2024/03/19 07:49:35;;;;;;;1.73;1.63;;;9.30;90.10;;;;;;4885576;29;20506;-86
2024/03/19 07:52:05;;;;;;;2.33;2.23;;;9.20;91.90;;;;;;4901131;29;20192;-88
2024/03/19 07:54:32;;;;;;;1.70;1.65;;;8.80;95.50;;;;;;4935978;23;20504;-89
2024/03/19 07:56:58;;;;;;;0.90;0.90;;;8.90;99.90;;;;;;4868843;29;20279;-88
2024/03/19 07:59:24;;;;;;;0.70;0.70;;;8.70;99.90;;;;;;4865478;29;20437;-88
2024/03/19 08:01:51;;;;;;;0.85;0.85;;;9.00;99.90;;;;;;4874436;29;20689;-88
2024/03/19 08:04:18;;;;;;;1.33;1.33;;;8.00;99.90;;;;;;4868262;29;20213;-87
2024/03/19 08:06:45;;;;;;;0.70;0.70;;;9.80;99.90;;;;;;4980026;23;20312;-88
2024/03/19 08:09:12;;;;;;;2.08;1.98;;;9.80;96.50;;;;;;4876200;29;20201;-89
2024/03/19 08:11:38;;;;;;;0.70;0.70;;;9.50;96.90;;;;;;4892852;29;20257;-90
2024/03/19 08:14:05;;;;;;;0.70;0.70;;;9.10;95.30;;;;;;5180988;23;20226;-92
2024/03/19 08:16:32;;;;;;;1.77;1.67;;;8.90;98.90;;;;;;4865223;29;20214;-87
2024/03/19 08:19:02;;;;;;;1.63;1.63;;;8.80;99.90;;;;;;4881040;29;20199;-81
2024/03/19 08:21:28;;;;;;;1.10;1.10;;;8.10;99.90;;;;;;4862372;29;20207;-85
2024/03/19 08:23:56;;;;;;;1.75;1.65;;;8.20;99.90;;;;;;4873538;29;20457;-82
2024/03/19 08:26:22;;;;;;;1.00;1.00;;;10.30;99.30;;;;;;4881936;29;20195;-85
2024/03/19 08:28:48;;;;;;;16.40;3.23;;;10.60;90.20;;;;;;4932972;23;20227;-86
2024/03/19 08:31:14;;;;;;;2.83;2.73;;;9.90;93.20;;;;;;4905395;29;20525;-84
2024/03/19 08:33:41;;;;;;;1.20;1.20;;;11.30;86.00;;;;;;4898630;29;20240;-84
2024/03/19 08:36:07;;;;;;;2.50;2.30;;;8.80;91.30;;;;;;4885761;29;20455;-83
2024/03/19 08:38:37;;;;;;;1.58;1.55;;;7.80;99.90;;;;;;4913729;29;20646;-87
2024/03/19 08:41:04;;;;;;;3.40;3.20;;;6.80;99.90;;;;;;5002544;23;20296;-87
2024/03/19 08:47:13;;;;;;;2.17;2.03;;;5.30;99.90;;;;;;4902290;29;20209;-87
2024/03/19 08:49:43;;;;;;;1.73;1.65;;;5.70;99.90;;;;;;4893550;29;20205;-87
2024/03/19 08:52:11;;;;;;;2.50;2.40;;;6.30;99.90;;;;;;4893730;29;20201;-89
2024/03/19 08:54:38;;;;;;;1.42;0.90;;;8.30;99.90;;;;;;4864837;29;20278;-85
2024/03/19 08:57:04;;;;;;;1.65;1.60;;;6.70;99.90;;;;;;4884924;29;20220;-86
2024/03/19 08:59:33;;;;;;;2.17;2.07;;;7.20;99.90;;;;;;4879102;29;20271;-85
2024/03/19 09:02:04;;;;;;;1.02;1.02;;;7.10;99.90;;;;;;4873553;29;20464;-88
2024/03/19 09:04:39;;;;;;;1.55;1.50;;;6.50;99.90;;;;;;4869659;29;20225;-86
2024/03/19 09:07:20;;;;;;;1.17;1.17;;;6.40;99.90;;;;;;4882497;29;20610;-87
2024/03/19 09:09:48;;;;;;;1.52;1.52;;;6.60;99.90;;;;;;5040496;23;20229;-88
2024/03/19 09:12:15;;;;;;;1.92;1.88;;;7.20;99.90;;;;;;4936899;23;20257;-88
2024/03/19 09:14:42;;;;;;;1.65;1.60;;;6.50;99.90;;;;;;4877169;29;20198;-87
2024/03/19 09:17:13;;;;;;;3.63;3.42;;;6.40;99.90;;;;;;4890986;29;20278;-89
2024/03/19 09:19:42;;;;;;;1.35;1.35;;;6.00;99.90;;;;;;4890843;29;20208;-87
2024/03/19 09:22:09;;;;;;;1.00;1.00;;;6.50;99.90;;;;;;4894305;29;20208;-87
2024/03/19 09:24:40;;;;;;;1.30;1.30;;;6.60;99.90;;;;;;4878952;29;20211;-86
2024/03/19 09:27:08;;;;;;;2.65;2.55;;;6.60;99.90;;;;;;4897977;29;20201;-85
2024/03/19 09:29:54;;;;;;;1.40;1.30;;;7.20;99.90;;;;;;4877816;29;20229;-87
2024/03/19 09:32:22;;;;;;;2.47;2.28;;;6.90;99.90;;;;;;4893093;29;20194;-86
2024/03/19 09:34:54;;;;;;;0.90;0.90;;;6.90;99.90;;;;;;4881299;29;20194;-86
2024/03/19 09:37:21;;;;;;;1.83;1.80;;;7.30;99.90;;;;;;4876817;29;20273;-86
2024/03/19 09:39:47;;;;;;;3.97;3.78;;;7.40;99.90;;;;;;4894610;29;20193;-90
2024/03/19 09:42:16;;;;;;;1.80;1.70;;;7.60;99.90;;;;;;4889533;29;20245;-87
2024/03/19 09:44:44;;;;;;;2.13;2.03;;;6.30;99.90;;;;;;4877686;29;20441;-85
2024/03/19 09:47:16;;;;;;;1.38;1.35;;;7.00;99.90;;;;;;4901852;29;20225;-90
2024/03/19 09:49:45;;;;;;;1.70;1.55;;;6.80;99.90;;;;;;4881651;29;20201;-85
2024/03/19 09:52:16;;;;;;;1.10;1.10;;;6.60;99.90;;;;;;4884029;29;20206;-86
2024/03/19 09:54:43;;;;;;;3.38;3.25;;;6.50;99.90;;;;;;4883457;29;20198;-89
2024/03/19 09:57:16;;;;;;;2.30;2.20;;;6.40;99.90;;;;;;4882297;29;20206;-90
2024/03/19 09:59:48;;;;;;;0.90;0.90;;;6.50;99.90;;;;;;4892114;29;20212;-89
2024/03/19 10:02:20;;;;;;;1.10;1.10;;;6.40;99.90;;;;;;4865719;29;20218;-87
2024/03/19 10:04:48;;;;;;;2.33;2.15;;;6.30;99.90;;;;;;5148126;24;20237;-86
2024/03/19 10:07:19;;;;;;;2.75;2.65;;;5.90;99.90;;;;;;4877089;29;20217;-85
2024/03/19 10:09:47;;;;;;;1.27;1.27;;;6.30;99.90;;;;;;4860316;29;20209;-85
2024/03/19 10:12:14;;;;;;;2.08;1.98;;;6.30;99.90;;;;;;4845078;29;20208;-85
2024/03/19 10:14:42;;;;;;;6.03;2.65;;;6.30;99.90;;;;;;4862371;29;20204;-86
2024/03/19 10:17:15;;;;;;;1.95;1.85;;;6.40;99.90;;;;;;4852673;29;20221;-86
2024/03/19 10:19:42;;;;;;;1.75;1.65;;;7.00;99.90;;;;;;4858045;29;20493;-85
2024/03/19 10:22:11;;;;;;;3.88;3.67;;;7.10;99.90;;;;;;4842597;29;20500;-87
2024/03/19 10:24:38;;;;;;;1.88;1.77;;;6.90;99.90;;;;;;4839279;29;20198;-86
2024/03/19 10:27:09;;;;;;;2.63;1.93;;;7.50;99.90;;;;;;4868317;29;20232;-85
2024/03/19 10:29:36;;;;;;;1.98;1.88;;;7.30;99.90;;;;;;4871666;29;20609;-84
2024/03/19 10:32:07;;;;;;;1.23;1.23;;;7.20;99.90;;;;;;4856565;29;20725;-84
2024/03/19 10:34:35;;;;;;;1.42;1.38;;;7.70;99.90;;;;;;4859907;29;20386;-85
2024/03/19 10:37:02;;;;;;;0.90;0.90;;;7.80;99.90;;;;;;4857049;29;20194;-86
2024/03/19 10:39:28;;;;;;;2.15;2.05;;;7.90;96.20;;;;;;4872333;29;20220;-87
2024/03/19 10:41:57;;;;;;;1.52;1.52;;;8.40;95.50;;;;;;4856624;29;20202;-87
2024/03/19 10:44:23;;;;;;;1.75;1.65;;;8.30;92.20;;;;;;4855387;29;20198;-86
2024/03/19 10:46:50;;;;;;;0.80;0.80;;;7.90;88.80;;;;;;4873682;29;20201;-86
2024/03/19 10:49:21;;;;;;;1.27;1.27;;;7.90;84.80;;;;;;4859169;29;20212;-87
2024/03/19 10:51:52;;;;;;;0.95;0.95;;;8.10;86.60;;;;;;4860090;29;20226;-87
2024/03/19 10:54:21;;;;;;;1.70;1.63;;;8.30;87.20;;;;;;4850984;29;20191;-85
2024/03/19 10:56:49;;;;;;;0.68;0.68;;;7.50;90.20;;;;;;4852644;29;20194;-85
2024/03/19 10:59:16;;;;;;;1.13;1.13;;;8.50;88.90;;;;;;4859086;29;20206;-86
2024/03/19 11:01:52;;;;;;;0.80;0.80;;;8.70;88.30;;;;;;4858596;29;20221;-86
2024/03/19 11:04:26;;;;;;;2.75;2.65;;;8.40;90.00;;;;;;4872810;29;20437;-88
2024/03/19 11:06:58;;;;;;;0.90;0.90;;;9.30;89.20;;;;;;4855899;29;20194;-86
2024/03/19 11:09:26;;;;;;;1.58;1.55;;;9.40;85.50;;;;;;4841332;29;20247;-86
2024/03/19 11:12:04;;;;;;;2.08;1.98;;;9.30;83.10;;;;;;4867388;29;20222;-84
2024/03/19 11:14:31;;;;;;;3.20;3.00;;;8.00;83.10;;;;;;4859419;29;20202;-86
2024/03/19 11:16:58;;;;;;;1.10;1.10;;;8.20;83.50;;;;;;4872970;29;20206;-87
2024/03/19 11:19:30;;;;;;;0.90;0.90;;;8.30;82.10;;;;;;4877347;29;20190;-85
2024/03/19 11:22:00;;;;;;;1.98;1.80;;;8.10;83.10;;;;;;4859877;29;20198;-85
2024/03/19 11:24:28;;;;;;;1.88;1.77;;;8.70;84.20;;;;;;4874731;29;20216;-85
2024/03/19 11:26:57;;;;;;;1.20;1.20;;;8.50;82.80;;;;;;4877544;29;20202;-85
2024/03/19 11:32:07;;;;;;;3.25;2.95;;;7.40;84.00;;;;;;4997448;23;20244;-86
2024/03/19 11:34:34;;;;;;;1.77;1.67;;;7.60;85.50;;;;;;4868509;29;20228;-86
2024/03/19 11:37:00;;;;;;;2.03;1.92;;;7.90;85.10;;;;;;4883904;29;20196;-85
2024/03/19 11:39:27;;;;;;;2.60;2.50;;;7.70;85.20;;;;;;4884075;29;20201;-88
2024/03/19 11:41:54;;;;;;;1.63;1.58;;;7.90;84.80;;;;;;4880801;29;20893;-86
2024/03/19 11:44:25;;;;;;;2.40;2.20;;;7.70;85.80;;;;;;4863217;29;20254;-84
2024/03/19 11:46:52;;;;;;;1.00;1.00;;;7.90;85.70;;;;;;4865951;29;20186;-86
2024/03/19 11:49:29;;;;;;;1.85;1.75;;;8.00;85.80;;;;;;4868318;29;20190;-87
2024/03/19 11:51:59;;;;;;;1.10;1.10;;;7.90;85.70;;;;;;4869434;29;20558;-87
2024/03/19 11:54:29;;;;;;;1.00;1.00;;;7.60;85.40;;;;;;4859006;29;20202;-85
2024/03/19 11:56:57;;;;;;;1.70;1.58;;;7.50;87.00;;;;;;4858069;29;20211;-85
2024/03/19 11:59:24;;;;;;;2.78;2.67;;;7.40;87.00;;;;;;4873053;29;20206;-86
2024/03/19 12:01:52;;;;;;;2.65;2.15;;;7.70;87.40;;;;;;4843144;29;20206;-86
2024/03/19 12:04:19;;;;;;;1.67;1.42;;;7.80;87.70;;;;;;4850951;29;20212;-85
2024/03/19 12:06:47;;;;;;;0.90;0.90;;;7.30;88.10;;;;;;4849727;29;20566;-85
2024/03/19 12:09:13;;;;;;;2.17;2.10;;;7.30;86.90;;;;;;4857611;29;20517;-85
2024/03/19 12:11:41;;;;;;;0.70;0.70;;;7.00;89.20;;;;;;4857573;29;20317;-86
2024/03/19 12:14:14;;;;;;;3.75;3.47;;;7.60;88.40;;;;;;4864057;29;20498;-84
2024/03/19 12:16:44;;;;;;;2.88;2.78;;;7.60;87.20;;;;;;4864346;29;20206;-86
2024/03/19 12:19:11;;;;;;;0.93;0.93;;;7.30;87.40;;;;;;4867886;29;20222;-86
2024/03/19 12:21:41;;;;;;;1.08;1.08;;;7.20;88.70;;;;;;4868257;29;20190;-87
2024/03/19 12:24:15;;;;;;;1.27;1.27;;;7.40;89.90;;;;;;4883526;29;20190;-89
2024/03/19 12:26:44;;;;;;;3.03;2.80;;;8.10;89.00;;;;;;4868195;29;20182;-85
2024/03/19 12:29:16;;;;;;;0.90;0.90;;;8.10;85.70;;;;;;4884860;29;20195;-86
2024/03/19 12:31:49;;;;;;;1.23;1.23;;;8.00;86.40;;;;;;4883982;29;20236;-85
2024/03/19 12:37:09;;;;;;;1.38;1.38;;;8.80;87.50;;;;;;4883320;29;20209;-84
2024/03/19 12:39:36;;;;;;;0.73;0.73;;;8.20;83.60;;;;;;4868881;29;20195;-87
2024/03/19 12:42:03;;;;;;;0.75;0.75;;;8.00;85.80;;;;;;4886749;29;20191;-86
2024/03/19 12:44:32;;;;;;;2.80;2.65;;;8.10;85.20;;;;;;4886215;29;20205;-85
2024/03/19 12:47:01;;;;;;;1.52;1.52;;;8.30;84.80;;;;;;4876880;29;20209;-86
2024/03/19 12:49:27;;;;;;;0.70;0.70;;;8.50;86.80;;;;;;4880287;29;20201;-85
2024/03/19 12:51:54;;;;;;;1.45;1.33;;;8.30;85.00;;;;;;4883715;29;20234;-85
2024/03/19 12:54:21;;;;;;;2.40;2.30;;;8.00;85.80;;;;;;4900316;29;20201;-84
2024/03/19 12:56:47;;;;;;;1.45;1.45;;;8.00;85.20;;;;;;4919313;23;20504;-89
2024/03/19 13:01:47;;;;;;;1.65;1.55;;;7.20;87.10;;;;;;5039105;23;20229;-85
2024/03/19 13:04:15;;;;;;;1.45;1.45;;;7.20;88.80;;;;;;4903187;29;20213;-86
2024/03/19 13:06:41;;;;;;;0.98;0.98;;;7.70;88.80;;;;;;4885059;29;20441;-85
2024/03/19 13:09:08;;;;;;;0.80;0.80;;;8.30;87.00;;;;;;4886489;29;20213;-86
2024/03/19 13:11:38;;;;;;;0.88;0.88;;;8.40;86.00;;;;;;4903800;29;20301;-84
2024/03/19 13:14:04;;;;;;;1.15;1.15;;;8.40;85.00;;;;;;4904187;29;20194;-86
2024/03/19 13:19:12;;;;;;;6.10;2.30;;;8.20;83.20;;;;;;5001748;23;20492;-88
2024/03/19 13:25:21;;;;;;;2.40;2.20;;;8.50;85.70;;;;;;4902594;29;20183;-86
2024/03/19 13:27:47;;;;;;;0.98;0.98;;;8.50;84.40;;;;;;4901185;29;20208;-87
2024/03/19 13:30:13;;;;;;;3.83;3.43;;;7.80;86.10;;;;;;4899362;29;20214;-90
2024/03/19 13:32:39;;;;;;;0.80;0.80;;;7.20;87.50;;;;;;4877483;29;20445;-85
2024/03/19 13:35:07;;;;;;;6.25;2.42;;;7.40;87.60;;;;;;4875124;29;20207;-87
2024/03/19 13:37:33;;;;;;;1.02;1.02;;;7.60;88.90;;;;;;4879899;29;20198;-86
2024/03/19 13:40:00;;;;;;;0.70;0.70;;;8.50;88.30;;;;;;4899389;29;20497;-86
2024/03/19 13:42:29;;;;;;;1.13;1.13;;;8.70;85.40;;;;;;4893725;29;20359;-86
2024/03/19 13:44:55;;;;;;;1.00;1.00;;;8.30;87.70;;;;;;4883269;29;20201;-85
2024/03/19 13:47:22;;;;;;;1.90;1.80;;;8.00;85.80;;;;;;4901777;29;20202;-86
2024/03/19 13:49:47;;;;;;;1.75;1.65;;;8.60;87.60;;;;;;4882336;29;20481;-86
2024/03/19 13:52:23;;;;;;;0.85;0.85;;;8.60;83.70;;;;;;4994274;23;20233;-87
2024/03/19 13:58:19;;;;;;;0.82;0.82;;;9.00;81.80;;;;;;4917784;29;20181;-89